X  Kiinni Metar Aviation säätiedot     LYNI Nis Airport
Lämpötila
12°C Lämpötila
4°C Kastepiste
58% Kosteus



Tuuli
8 KM/T
5 MPH
2 M/S
4 KTS



180°
E
Nykyiset olosuhteet

Enimmäkseen pilvistä Enimmäkseen pilvistä
Paine 1012.87 (hPa) - 29.91 (inHg)
Näkyvyys 6 (maili) - 9.7 (km)
Lentokenttä
Lentokentän koodi LYNI

Sijainti: Nis Airport
Etäisyys: 63 (km)

Metar:
LYNI 230730Z 18004KT 120V250 9999 SCT050 12/04 Q1013 TEMPO FM0900 18014KT

Aika: 23-02-2024 08:30 CET